sensor_id;sensor_type;location;lat;lon;timestamp;P1;durP1;ratioP1;P2;durP2;ratioP2
60426;SDS011;46274;47.168;27.604;2023-06-14T00:03:36;10.53;;;6.00;;
60426;SDS011;46274;47.168;27.604;2023-06-14T00:09:51;9.40;;;5.17;;
60426;SDS011;46274;47.168;27.604;2023-06-14T00:16:01;7.73;;;5.50;;
60426;SDS011;46274;47.168;27.604;2023-06-14T00:22:06;9.17;;;5.90;;
60426;SDS011;46274;47.168;27.604;2023-06-14T00:28:09;7.43;;;4.40;;
60426;SDS011;46274;47.168;27.604;2023-06-14T00:34:12;7.30;;;4.93;;
60426;SDS011;46274;47.168;27.604;2023-06-14T00:40:14;8.70;;;5.20;;
60426;SDS011;46274;47.168;27.604;2023-06-14T00:52:28;11.97;;;4.97;;
60426;SDS011;46274;47.168;27.604;2023-06-14T01:04:51;10.07;;;5.30;;
60426;SDS011;46274;47.168;27.604;2023-06-14T01:17:22;11.03;;;4.90;;
60426;SDS011;46274;47.168;27.604;2023-06-14T01:23:35;12.60;;;5.10;;
60426;SDS011;46274;47.168;27.604;2023-06-14T01:29:38;9.93;;;4.27;;
60426;SDS011;46274;47.168;27.604;2023-06-14T01:42:05;13.83;;;5.80;;
60426;SDS011;46274;47.168;27.604;2023-06-14T01:55:01;6.73;;;5.17;;
60426;SDS011;46274;47.168;27.604;2023-06-14T02:01:10;6.97;;;4.90;;
60426;SDS011;46274;47.168;27.604;2023-06-14T02:07:23;15.20;;;5.53;;
60426;SDS011;46274;47.168;27.604;2023-06-14T02:20:04;6.70;;;4.10;;
60426;SDS011;46274;47.168;27.604;2023-06-14T02:32:18;15.17;;;5.60;;
60426;SDS011;46274;47.168;27.604;2023-06-14T02:38:23;8.07;;;5.33;;
60426;SDS011;46274;47.168;27.604;2023-06-14T02:44:29;7.50;;;4.80;;
60426;SDS011;46274;47.168;27.604;2023-06-14T02:50:34;8.23;;;4.00;;
60426;SDS011;46274;47.168;27.604;2023-06-14T02:56:48;10.00;;;4.90;;
60426;SDS011;46274;47.168;27.604;2023-06-14T03:02:51;7.53;;;3.93;;
60426;SDS011;46274;47.168;27.604;2023-06-14T03:08:56;5.17;;;3.90;;
60426;SDS011;46274;47.168;27.604;2023-06-14T03:15:08;8.70;;;4.97;;
60426;SDS011;46274;47.168;27.604;2023-06-14T03:21:18;9.27;;;4.23;;
60426;SDS011;46274;47.168;27.604;2023-06-14T03:27:26;5.43;;;3.87;;
60426;SDS011;46274;47.168;27.604;2023-06-14T03:33:32;6.63;;;4.17;;
60426;SDS011;46274;47.168;27.604;2023-06-14T03:39:37;7.73;;;4.63;;
60426;SDS011;46274;47.168;27.604;2023-06-14T03:45:40;13.10;;;7.53;;
60426;SDS011;46274;47.168;27.604;2023-06-14T03:51:48;17.60;;;9.50;;
60426;SDS011;46274;47.168;27.604;2023-06-14T03:57:55;13.40;;;8.60;;
60426;SDS011;46274;47.168;27.604;2023-06-14T04:03:59;9.43;;;5.70;;
60426;SDS011;46274;47.168;27.604;2023-06-14T04:16:10;13.20;;;8.00;;
60426;SDS011;46274;47.168;27.604;2023-06-14T04:28:32;15.80;;;8.87;;
60426;SDS011;46274;47.168;27.604;2023-06-14T04:47:27;12.50;;;7.30;;
60426;SDS011;46274;47.168;27.604;2023-06-14T05:06:24;16.37;;;6.97;;
60426;SDS011;46274;47.168;27.604;2023-06-14T05:12:41;9.90;;;5.20;;
60426;SDS011;46274;47.168;27.604;2023-06-14T05:18:54;9.63;;;5.80;;
60426;SDS011;46274;47.168;27.604;2023-06-14T05:24:58;9.53;;;6.23;;
60426;SDS011;46274;47.168;27.604;2023-06-14T05:31:01;14.55;;;7.43;;
60426;SDS011;46274;47.168;27.604;2023-06-14T05:37:22;11.33;;;6.20;;
60426;SDS011;46274;47.168;27.604;2023-06-14T05:43:39;11.43;;;5.80;;
60426;SDS011;46274;47.168;27.604;2023-06-14T05:49:45;14.00;;;7.33;;
60426;SDS011;46274;47.168;27.604;2023-06-14T05:55:47;16.08;;;7.32;;
60426;SDS011;46274;47.168;27.604;2023-06-14T06:02:04;11.75;;;6.20;;
60426;SDS011;46274;47.168;27.604;2023-06-14T06:08:21;10.07;;;5.80;;
60426;SDS011;46274;47.168;27.604;2023-06-14T06:14:29;16.88;;;6.43;;
60426;SDS011;46274;47.168;27.604;2023-06-14T06:20:38;11.32;;;5.45;;
60426;SDS011;46274;47.168;27.604;2023-06-14T06:26:43;10.48;;;5.55;;
60426;SDS011;46274;47.168;27.604;2023-06-14T06:32:47;10.27;;;4.63;;
60426;SDS011;46274;47.168;27.604;2023-06-14T06:38:49;10.55;;;5.82;;
60426;SDS011;46274;47.168;27.604;2023-06-14T06:57:22;25.35;;;5.03;;
60426;SDS011;46274;47.168;27.604;2023-06-14T07:03:32;13.45;;;4.72;;
60426;SDS011;46274;47.168;27.604;2023-06-14T07:09:39;11.13;;;5.53;;
60426;SDS011;46274;47.168;27.604;2023-06-14T07:15:54;12.75;;;6.82;;
60426;SDS011;46274;47.168;27.604;2023-06-14T07:22:04;10.77;;;5.38;;
60426;SDS011;46274;47.168;27.604;2023-06-14T07:28:07;21.20;;;6.95;;
60426;SDS011;46274;47.168;27.604;2023-06-14T07:47:07;7.38;;;3.70;;
60426;SDS011;46274;47.168;27.604;2023-06-14T07:53:09;26.42;;;11.32;;
60426;SDS011;46274;47.168;27.604;2023-06-14T07:59:15;20.40;;;8.77;;
60426;SDS011;46274;47.168;27.604;2023-06-14T08:05:20;13.15;;;7.43;;
60426;SDS011;46274;47.168;27.604;2023-06-14T08:11:29;10.00;;;5.82;;
60426;SDS011;46274;47.168;27.604;2023-06-14T08:17:35;10.77;;;5.05;;
60426;SDS011;46274;47.168;27.604;2023-06-14T08:23:39;10.95;;;4.40;;
60426;SDS011;46274;47.168;27.604;2023-06-14T08:29:49;5.88;;;3.75;;
60426;SDS011;46274;47.168;27.604;2023-06-14T08:42:16;6.93;;;3.47;;
60426;SDS011;46274;47.168;27.604;2023-06-14T08:48:37;8.80;;;4.90;;
60426;SDS011;46274;47.168;27.604;2023-06-14T09:00:51;8.55;;;3.88;;
60426;SDS011;46274;47.168;27.604;2023-06-14T09:13:15;9.20;;;5.05;;
60426;SDS011;46274;47.168;27.604;2023-06-14T09:19:31;11.52;;;4.88;;
60426;SDS011;46274;47.168;27.604;2023-06-14T09:25:50;5.97;;;4.00;;
60426;SDS011;46274;47.168;27.604;2023-06-14T09:31:52;12.02;;;3.80;;
60426;SDS011;46274;47.168;27.604;2023-06-14T09:37:58;4.70;;;2.97;;
60426;SDS011;46274;47.168;27.604;2023-06-14T09:50:26;7.43;;;3.55;;
60426;SDS011;46274;47.168;27.604;2023-06-14T09:56:28;9.73;;;4.03;;
60426;SDS011;46274;47.168;27.604;2023-06-14T10:02:34;6.32;;;3.15;;
60426;SDS011;46274;47.168;27.604;2023-06-14T10:08:41;6.22;;;3.53;;
60426;SDS011;46274;47.168;27.604;2023-06-14T10:34:31;7.93;;;4.72;;
60426;SDS011;46274;47.168;27.604;2023-06-14T10:40:35;8.32;;;4.40;;
60426;SDS011;46274;47.168;27.604;2023-06-14T10:53:40;9.70;;;4.47;;
60426;SDS011;46274;47.168;27.604;2023-06-14T10:59:42;12.75;;;3.90;;
60426;SDS011;46274;47.168;27.604;2023-06-14T11:12:33;10.77;;;4.53;;
60426;SDS011;46274;47.168;27.604;2023-06-14T11:18:39;6.88;;;3.60;;
60426;SDS011;46274;47.168;27.604;2023-06-14T11:24:42;15.48;;;3.65;;
60426;SDS011;46274;47.168;27.604;2023-06-14T11:31:07;7.60;;;3.75;;
60426;SDS011;46274;47.168;27.604;2023-06-14T11:37:11;4.35;;;3.03;;
60426;SDS011;46274;47.168;27.604;2023-06-14T11:43:18;8.00;;;3.95;;
60426;SDS011;46274;47.168;27.604;2023-06-14T11:49:37;7.45;;;3.50;;
60426;SDS011;46274;47.168;27.604;2023-06-14T11:55:47;7.60;;;3.30;;
60426;SDS011;46274;47.168;27.604;2023-06-14T12:01:57;9.52;;;3.33;;
60426;SDS011;46274;47.168;27.604;2023-06-14T12:08:00;8.73;;;3.47;;
60426;SDS011;46274;47.168;27.604;2023-06-14T12:14:08;6.07;;;3.47;;
60426;SDS011;46274;47.168;27.604;2023-06-14T12:20:14;8.90;;;2.97;;
60426;SDS011;46274;47.168;27.604;2023-06-14T12:26:28;7.95;;;3.60;;
60426;SDS011;46274;47.168;27.604;2023-06-14T12:32:37;5.55;;;2.75;;
60426;SDS011;46274;47.168;27.604;2023-06-14T12:45:04;6.40;;;2.88;;
60426;SDS011;46274;47.168;27.604;2023-06-14T12:51:11;9.50;;;3.30;;
60426;SDS011;46274;47.168;27.604;2023-06-14T12:57:17;5.38;;;2.88;;
60426;SDS011;46274;47.168;27.604;2023-06-14T13:09:43;7.47;;;2.85;;
60426;SDS011;46274;47.168;27.604;2023-06-14T13:15:57;7.88;;;3.28;;
60426;SDS011;46274;47.168;27.604;2023-06-14T13:22:19;6.18;;;3.15;;
60426;SDS011;46274;47.168;27.604;2023-06-14T13:34:30;10.93;;;2.72;;
60426;SDS011;46274;47.168;27.604;2023-06-14T13:40:32;3.88;;;2.90;;
60426;SDS011;46274;47.168;27.604;2023-06-14T13:46:34;5.43;;;3.00;;
60426;SDS011;46274;47.168;27.604;2023-06-14T13:52:38;8.20;;;2.47;;
60426;SDS011;46274;47.168;27.604;2023-06-14T13:58:57;5.25;;;3.20;;
60426;SDS011;46274;47.168;27.604;2023-06-14T14:05:13;19.30;;;3.67;;
60426;SDS011;46274;47.168;27.604;2023-06-14T14:11:18;6.28;;;2.78;;
60426;SDS011;46274;47.168;27.604;2023-06-14T14:17:25;7.88;;;2.65;;
60426;SDS011;46274;47.168;27.604;2023-06-14T14:23:34;5.10;;;3.05;;
60426;SDS011;46274;47.168;27.604;2023-06-14T14:29:40;7.88;;;2.53;;
60426;SDS011;46274;47.168;27.604;2023-06-14T14:35:53;5.57;;;2.78;;
60426;SDS011;46274;47.168;27.604;2023-06-14T14:41:56;5.38;;;3.22;;
60426;SDS011;46274;47.168;27.604;2023-06-14T14:48:05;6.95;;;3.05;;
60426;SDS011;46274;47.168;27.604;2023-06-14T14:54:10;10.57;;;2.83;;
60426;SDS011;46274;47.168;27.604;2023-06-14T15:00:20;5.15;;;3.30;;
60426;SDS011;46274;47.168;27.604;2023-06-14T15:06:23;7.78;;;4.18;;
60426;SDS011;46274;47.168;27.604;2023-06-14T15:12:31;10.85;;;4.30;;
60426;SDS011;46274;47.168;27.604;2023-06-14T15:37:28;8.52;;;3.63;;
60426;SDS011;46274;47.168;27.604;2023-06-14T15:43:33;7.63;;;4.93;;
60426;SDS011;46274;47.168;27.604;2023-06-14T15:49:47;10.85;;;6.10;;
60426;SDS011;46274;47.168;27.604;2023-06-14T15:55:54;13.30;;;7.75;;
60426;SDS011;46274;47.168;27.604;2023-06-14T16:02:05;34.42;;;19.08;;
60426;SDS011;46274;47.168;27.604;2023-06-14T16:08:21;21.98;;;9.88;;
60426;SDS011;46274;47.168;27.604;2023-06-14T16:14:50;19.83;;;9.88;;
60426;SDS011;46274;47.168;27.604;2023-06-14T16:27:21;42.67;;;23.45;;
60426;SDS011;46274;47.168;27.604;2023-06-14T16:33:40;74.80;;;48.67;;
60426;SDS011;46274;47.168;27.604;2023-06-14T16:39:53;59.85;;;40.67;;
60426;SDS011;46274;47.168;27.604;2023-06-14T16:45:58;29.48;;;18.65;;
60426;SDS011;46274;47.168;27.604;2023-06-14T16:52:13;23.08;;;8.45;;
60426;SDS011;46274;47.168;27.604;2023-06-14T16:58:32;15.80;;;7.57;;
60426;SDS011;46274;47.168;27.604;2023-06-14T17:04:39;20.40;;;7.35;;
60426;SDS011;46274;47.168;27.604;2023-06-14T17:10:43;15.75;;;5.53;;
60426;SDS011;46274;47.168;27.604;2023-06-14T17:23:06;13.45;;;7.30;;
60426;SDS011;46274;47.168;27.604;2023-06-14T17:29:19;9.75;;;5.95;;
60426;SDS011;46274;47.168;27.604;2023-06-14T17:35:34;15.13;;;8.23;;
60426;SDS011;46274;47.168;27.604;2023-06-14T17:41:43;17.42;;;9.80;;
60426;SDS011;46274;47.168;27.604;2023-06-14T17:47:55;20.27;;;10.63;;
60426;SDS011;46274;47.168;27.604;2023-06-14T17:54:05;19.17;;;9.63;;
60426;SDS011;46274;47.168;27.604;2023-06-14T18:00:09;17.38;;;9.82;;
60426;SDS011;46274;47.168;27.604;2023-06-14T18:06:13;15.65;;;9.43;;
60426;SDS011;46274;47.168;27.604;2023-06-14T18:12:17;12.23;;;6.82;;
60426;SDS011;46274;47.168;27.604;2023-06-14T18:18:29;14.13;;;6.85;;
60426;SDS011;46274;47.168;27.604;2023-06-14T18:24:31;14.20;;;9.20;;
60426;SDS011;46274;47.168;27.604;2023-06-14T18:30:36;17.30;;;10.10;;
60426;SDS011;46274;47.168;27.604;2023-06-14T18:36:40;28.00;;;12.55;;
60426;SDS011;46274;47.168;27.604;2023-06-14T18:42:49;25.15;;;11.18;;
60426;SDS011;46274;47.168;27.604;2023-06-14T18:49:00;13.27;;;7.25;;
60426;SDS011;46274;47.168;27.604;2023-06-14T18:55:15;21.52;;;12.48;;
60426;SDS011;46274;47.168;27.604;2023-06-14T19:01:19;31.33;;;15.00;;
60426;SDS011;46274;47.168;27.604;2023-06-14T19:07:21;23.17;;;11.00;;
60426;SDS011;46274;47.168;27.604;2023-06-14T19:13:42;21.45;;;9.75;;
60426;SDS011;46274;47.168;27.604;2023-06-14T19:19:59;47.58;;;25.20;;
60426;SDS011;46274;47.168;27.604;2023-06-14T19:26:13;15.57;;;9.93;;
60426;SDS011;46274;47.168;27.604;2023-06-14T19:32:27;11.63;;;7.78;;
60426;SDS011;46274;47.168;27.604;2023-06-14T19:38:42;17.23;;;10.52;;
60426;SDS011;46274;47.168;27.604;2023-06-14T19:44:51;31.08;;;18.48;;
60426;SDS011;46274;47.168;27.604;2023-06-14T19:50:55;20.38;;;12.70;;
60426;SDS011;46274;47.168;27.604;2023-06-14T19:57:01;30.60;;;16.20;;
60426;SDS011;46274;47.168;27.604;2023-06-14T20:03:17;20.52;;;10.00;;
60426;SDS011;46274;47.168;27.604;2023-06-14T20:09:22;22.35;;;14.32;;
60426;SDS011;46274;47.168;27.604;2023-06-14T20:15:41;27.92;;;14.82;;
60426;SDS011;46274;47.168;27.604;2023-06-14T20:21:50;16.83;;;9.70;;
60426;SDS011;46274;47.168;27.604;2023-06-14T20:27:58;20.40;;;11.07;;
60426;SDS011;46274;47.168;27.604;2023-06-14T20:34:01;14.48;;;8.05;;
60426;SDS011;46274;47.168;27.604;2023-06-14T20:40:07;17.33;;;9.90;;
60426;SDS011;46274;47.168;27.604;2023-06-14T20:46:30;26.02;;;13.80;;
60426;SDS011;46274;47.168;27.604;2023-06-14T20:58:46;22.60;;;14.43;;
60426;SDS011;46274;47.168;27.604;2023-06-14T21:11:17;22.00;;;12.73;;
60426;SDS011;46274;47.168;27.604;2023-06-14T21:23:38;17.30;;;10.30;;
60426;SDS011;46274;47.168;27.604;2023-06-14T21:29:54;20.20;;;10.85;;
60426;SDS011;46274;47.168;27.604;2023-06-14T21:35:59;12.70;;;8.23;;
60426;SDS011;46274;47.168;27.604;2023-06-14T21:48:32;15.25;;;8.07;;
60426;SDS011;46274;47.168;27.604;2023-06-14T21:54:43;13.48;;;8.57;;
60426;SDS011;46274;47.168;27.604;2023-06-14T22:00:47;16.65;;;11.55;;
60426;SDS011;46274;47.168;27.604;2023-06-14T22:06:52;22.08;;;14.48;;
60426;SDS011;46274;47.168;27.604;2023-06-14T22:12:56;14.13;;;9.47;;
60426;SDS011;46274;47.168;27.604;2023-06-14T22:19:03;20.50;;;11.60;;
60426;SDS011;46274;47.168;27.604;2023-06-14T22:25:11;25.17;;;12.93;;
60426;SDS011;46274;47.168;27.604;2023-06-14T22:31:22;14.37;;;8.70;;
60426;SDS011;46274;47.168;27.604;2023-06-14T22:37:40;13.90;;;8.47;;
60426;SDS011;46274;47.168;27.604;2023-06-14T22:50:03;14.80;;;9.60;;
60426;SDS011;46274;47.168;27.604;2023-06-14T22:56:18;15.53;;;9.87;;
60426;SDS011;46274;47.168;27.604;2023-06-14T23:02:23;32.60;;;14.63;;
60426;SDS011;46274;47.168;27.604;2023-06-14T23:08:27;21.33;;;12.03;;
60426;SDS011;46274;47.168;27.604;2023-06-14T23:14:29;13.00;;;8.37;;
60426;SDS011;46274;47.168;27.604;2023-06-14T23:20:41;14.33;;;7.27;;
60426;SDS011;46274;47.168;27.604;2023-06-14T23:26:46;9.73;;;6.60;;
60426;SDS011;46274;47.168;27.604;2023-06-14T23:39:00;14.97;;;9.60;;
60426;SDS011;46274;47.168;27.604;2023-06-14T23:51:19;15.87;;;10.23;;
60426;SDS011;46274;47.168;27.604;2023-06-14T23:57:40;13.50;;;8.50;;
